createdAt,value
2018-06-21T00:01:42.387Z,137.52
2018-06-21T00:04:13.670Z,132.12
2018-06-21T00:06:44.892Z,128.85
2018-06-21T00:09:16.121Z,131.78
2018-06-21T00:11:47.370Z,133.18
2018-06-21T00:14:18.817Z,135.12
2018-06-21T00:16:50.044Z,135.52
2018-06-21T00:19:21.695Z,130.00
2018-06-21T00:21:52.948Z,131.87
2018-06-21T00:24:24.656Z,132.37
2018-06-21T00:26:56.301Z,132.93
2018-06-21T00:29:27.783Z,129.05
2018-06-21T00:31:59.251Z,129.95
2018-06-21T00:34:30.724Z,132.07
2018-06-21T00:37:02.037Z,131.50
2018-06-21T00:39:33.313Z,130.97
2018-06-21T00:42:04.863Z,136.25
2018-06-21T00:44:36.123Z,133.40
2018-06-21T00:47:07.305Z,138.00
2018-06-21T00:49:38.334Z,134.78
2018-06-21T00:52:09.682Z,136.30
2018-06-21T00:54:42.028Z,130.72
2018-06-21T00:57:13.265Z,133.47
2018-06-21T00:59:44.371Z,129.60
2018-06-21T01:02:16.055Z,127.82
2018-06-21T01:04:47.438Z,132.22
2018-06-21T01:07:18.665Z,129.60
2018-06-21T01:09:49.745Z,139.95
2018-06-21T01:12:24.455Z,134.03
2018-06-21T01:14:55.675Z,139.52
2018-06-21T01:17:26.900Z,130.63
2018-06-21T01:19:58.222Z,131.45
2018-06-21T01:22:29.485Z,130.32
2018-06-21T01:25:01.127Z,129.60
2018-06-21T01:27:32.909Z,129.10
2018-06-21T01:30:04.162Z,127.58
2018-06-21T01:32:35.752Z,128.65
2018-06-21T01:35:08.093Z,133.45
2018-06-21T01:37:39.354Z,130.27
2018-06-21T01:40:10.545Z,134.35
2018-06-21T01:42:41.806Z,131.25
2018-06-21T01:45:12.984Z,134.90
2018-06-21T01:47:44.177Z,132.47
2018-06-21T01:50:15.588Z,131.90
2018-06-21T01:52:46.714Z,132.00
2018-06-21T01:55:18.003Z,133.25
2018-06-21T01:57:49.230Z,136.30
2018-06-21T02:00:20.424Z,133.43
2018-06-21T02:02:51.901Z,136.90
2018-06-21T02:05:23.069Z,131.52
2018-06-21T02:07:54.187Z,132.95
2018-06-21T02:10:25.361Z,133.57
2018-06-21T02:12:56.570Z,137.92
2018-06-21T02:15:27.658Z,135.32
2018-06-21T02:17:58.970Z,128.68
2018-06-21T02:20:30.127Z,133.32
2018-06-21T02:23:01.475Z,136.65
2018-06-21T02:25:32.520Z,131.00
2018-06-21T02:28:03.846Z,133.10
2018-06-21T02:30:34.991Z,131.78
2018-06-21T02:33:06.272Z,138.82
2018-06-21T02:35:37.423Z,140.52
2018-06-21T02:38:08.632Z,135.03
2018-06-21T02:40:39.835Z,135.32
2018-06-21T02:43:11.002Z,135.05
2018-06-21T02:45:42.083Z,131.67
2018-06-21T02:48:13.354Z,130.27
2018-06-21T02:50:44.549Z,126.38
2018-06-21T02:53:15.657Z,129.20
2018-06-21T02:55:47.004Z,130.37
2018-06-21T02:58:18.039Z,132.50
2018-06-21T03:00:49.428Z,132.93
2018-06-21T03:03:20.551Z,128.00
2018-06-21T03:05:51.916Z,126.95
2018-06-21T03:08:23.189Z,127.22
2018-06-21T03:10:54.396Z,128.07
2018-06-21T03:13:25.851Z,123.30
2018-06-21T03:15:57.127Z,125.60
2018-06-21T03:18:28.352Z,124.60
2018-06-21T03:20:59.477Z,129.27
2018-06-21T03:23:30.740Z,121.97
2018-06-21T03:26:02.034Z,124.40
2018-06-21T03:28:33.227Z,134.15
2018-06-21T03:31:04.681Z,127.92
2018-06-21T03:33:35.935Z,128.12
2018-06-21T03:36:07.459Z,129.20
2018-06-21T03:38:38.536Z,132.20
2018-06-21T03:41:09.603Z,128.05
2018-06-21T03:43:40.818Z,130.50
2018-06-21T03:46:11.976Z,127.80
2018-06-21T03:48:43.182Z,124.87
2018-06-21T03:51:14.220Z,125.75
2018-06-21T03:53:45.682Z,130.37
2018-06-21T03:56:18.411Z,126.97
2018-06-21T03:58:49.541Z,122.47
2018-06-21T04:01:20.654Z,123.97
2018-06-21T04:03:51.828Z,122.37
2018-06-21T04:06:23.948Z,128.35
2018-06-21T04:08:55.197Z,126.00
2018-06-21T04:11:26.308Z,128.38
2018-06-21T04:13:57.668Z,128.55
2018-06-21T04:16:29.266Z,127.50
2018-06-21T04:19:00.430Z,124.00
2018-06-21T04:21:31.483Z,130.03
2018-06-21T04:24:02.623Z,131.25
2018-06-21T04:26:35.258Z,131.67
2018-06-21T04:29:06.576Z,130.85
2018-06-21T04:31:38.046Z,132.20
2018-06-21T04:34:12.572Z,125.58
2018-06-21T04:36:43.892Z,126.67
2018-06-21T04:39:15.120Z,127.82
2018-06-21T04:41:47.311Z,124.42
2018-06-21T04:44:18.530Z,123.15
2018-06-21T04:46:49.631Z,129.63
2018-06-21T04:49:20.846Z,128.05
2018-06-21T04:51:52.031Z,133.82
2018-06-21T04:54:24.168Z,130.25
2018-06-21T04:56:55.383Z,128.60
2018-06-21T04:59:27.052Z,131.40
2018-06-21T05:01:58.749Z,124.15
2018-06-21T05:04:29.958Z,128.90
2018-06-21T05:07:01.326Z,135.88
2018-06-21T05:09:32.568Z,126.42
2018-06-21T05:12:03.748Z,129.42
2018-06-21T05:14:34.793Z,132.15
2018-06-21T05:17:05.932Z,131.22
2018-06-21T05:19:37.045Z,135.55
2018-06-21T05:22:08.070Z,133.05
2018-06-21T05:24:39.360Z,130.85
2018-06-21T05:27:11.735Z,133.72
2018-06-21T05:29:46.020Z,131.72
2018-06-21T05:32:18.937Z,141.35
2018-06-21T05:34:50.434Z,138.55
2018-06-21T05:37:23.151Z,139.20
2018-06-21T05:39:54.205Z,141.37
2018-06-21T05:42:25.857Z,132.50
2018-06-21T05:44:57.115Z,140.45
2018-06-21T05:47:28.334Z,139.30
2018-06-21T05:49:59.436Z,136.10
2018-06-21T05:52:33.775Z,135.45
2018-06-21T05:55:06.724Z,133.20
2018-06-21T05:57:38.008Z,135.15
2018-06-21T06:00:09.525Z,135.85
2018-06-21T06:02:41.229Z,127.22
2018-06-21T06:05:12.449Z,133.05
2018-06-21T06:07:43.945Z,136.22
2018-06-21T06:10:16.543Z,132.35
2018-06-21T06:12:48.436Z,128.38
2018-06-21T06:15:20.392Z,131.85
2018-06-21T06:17:51.622Z,137.80
2018-06-21T06:20:22.709Z,139.80
2018-06-21T06:22:53.930Z,133.37
2018-06-21T06:25:26.050Z,135.37
2018-06-21T06:27:57.669Z,134.37
2018-06-21T06:30:28.879Z,131.63
2018-06-21T06:33:00.056Z,130.05
2018-06-21T06:35:31.820Z,133.63
2018-06-21T06:38:03.021Z,129.05
2018-06-21T06:40:34.143Z,124.95
2018-06-21T06:43:05.439Z,135.45
2018-06-21T06:45:36.722Z,131.25
2018-06-21T06:48:07.847Z,129.40
2018-06-21T06:50:38.996Z,141.30
2018-06-21T06:53:10.092Z,136.22
2018-06-21T06:55:41.355Z,134.72
2018-06-21T06:58:12.634Z,135.75
2018-06-21T07:00:43.795Z,130.07
2018-06-21T07:03:14.934Z,133.18
2018-06-21T07:05:46.154Z,131.60
2018-06-21T07:08:18.752Z,133.00
2018-06-21T07:10:50.169Z,139.22
2018-06-21T07:13:22.213Z,128.68
2018-06-21T07:15:53.540Z,133.35
2018-06-21T07:18:24.754Z,136.37
2018-06-21T07:20:55.885Z,134.30
2018-06-21T07:23:27.029Z,132.18
2018-06-21T07:25:58.243Z,129.65
2018-06-21T07:28:29.434Z,138.00
2018-06-21T07:31:01.254Z,137.47
2018-06-21T07:33:32.789Z,138.37
2018-06-21T07:36:04.156Z,140.97
2018-06-21T07:38:35.166Z,135.93
2018-06-21T07:41:06.374Z,134.90
2018-06-21T07:43:37.683Z,135.18
2018-06-21T07:46:08.723Z,136.77
2018-06-21T07:48:39.919Z,131.60
2018-06-21T07:51:11.135Z,133.45
2018-06-21T07:53:42.730Z,133.35
2018-06-21T07:56:14.294Z,135.10
2018-06-21T07:58:45.745Z,148.17
2018-06-21T08:01:16.944Z,137.07
2018-06-21T08:03:48.051Z,135.68
2018-06-21T08:06:19.313Z,134.45
2018-06-21T08:08:50.736Z,131.18
2018-06-21T08:11:21.692Z,134.37
2018-06-21T08:13:54.484Z,131.75
2018-06-21T08:16:25.767Z,129.15
2018-06-21T08:18:58.023Z,136.07
2018-06-21T08:21:29.058Z,132.30
2018-06-21T08:24:00.376Z,132.43
2018-06-21T08:26:31.755Z,131.65
2018-06-21T08:29:02.944Z,132.20
2018-06-21T08:31:34.265Z,130.00
2018-06-21T08:34:05.400Z,131.55
2018-06-21T08:36:36.748Z,132.32
2018-06-21T08:39:10.005Z,133.40
2018-06-21T08:41:41.190Z,138.90
2018-06-21T08:44:12.580Z,133.20
2018-06-21T08:46:49.130Z,136.43
2018-06-21T08:49:21.355Z,140.15
2018-06-21T08:51:52.859Z,135.63
2018-06-21T08:54:23.994Z,140.15
2018-06-21T08:56:55.282Z,136.57
2018-06-21T08:59:27.538Z,139.57
2018-06-21T09:02:02.035Z,146.18
2018-06-21T09:04:37.180Z,137.28
2018-06-21T09:07:13.378Z,139.92
2018-06-21T09:09:46.533Z,143.20
2018-06-21T09:12:18.566Z,139.68
2018-06-21T09:14:53.010Z,138.15
2018-06-21T09:17:25.612Z,136.72
2018-06-21T09:19:56.999Z,137.97
2018-06-21T09:22:28.194Z,138.62
2018-06-21T09:24:59.533Z,137.50
2018-06-21T09:27:31.138Z,139.37
2018-06-21T09:30:02.796Z,140.25
2018-06-21T09:32:34.252Z,137.82
2018-06-21T09:35:08.090Z,140.57
2018-06-21T09:37:45.180Z,134.00
2018-06-21T09:40:21.411Z,133.57
2018-06-21T09:42:58.569Z,138.62
2018-06-21T09:45:34.866Z,132.93
2018-06-21T09:48:11.127Z,136.52
2018-06-21T09:50:48.317Z,138.65
2018-06-21T09:53:24.087Z,135.45
2018-06-21T09:55:55.861Z,144.43
2018-06-21T09:58:28.799Z,138.03
2018-06-21T10:01:03.954Z,134.25
2018-06-21T10:03:35.174Z,134.05
2018-06-21T10:06:06.596Z,134.63
2018-06-21T10:08:37.659Z,135.68
2018-06-21T10:11:11.695Z,140.75
2018-06-21T10:13:43.024Z,137.88
2018-06-21T10:16:14.476Z,132.70
2018-06-21T10:18:45.796Z,136.57
2018-06-21T10:21:17.015Z,139.47
2018-06-21T10:23:48.822Z,139.57
2018-06-21T10:26:20.197Z,137.90
2018-06-21T10:28:51.391Z,136.00
2018-06-21T10:31:22.706Z,134.55
2018-06-21T10:33:53.922Z,136.95
2018-06-21T10:36:25.208Z,137.15
2018-06-21T10:38:56.129Z,141.35
2018-06-21T10:41:30.482Z,131.70
2018-06-21T10:44:02.112Z,135.35
2018-06-21T10:46:33.360Z,141.40
2018-06-21T10:49:04.855Z,135.60
2018-06-21T10:51:36.021Z,133.18
2018-06-21T10:54:11.054Z,136.55
2018-06-21T10:56:51.757Z,129.65
2018-06-21T10:59:24.606Z,140.05
2018-06-21T11:02:14.706Z,141.30
2018-06-21T11:05:15.659Z,134.27
2018-06-21T11:07:47.573Z,141.12
2018-06-21T11:10:18.747Z,134.40
2018-06-21T11:12:49.921Z,133.45
2018-06-21T11:15:21.325Z,133.47
2018-06-21T11:17:52.495Z,136.65
2018-06-21T11:20:23.485Z,131.90
2018-06-21T11:22:57.606Z,136.43
2018-06-21T11:25:29.019Z,143.57
2018-06-21T11:28:00.603Z,137.03
2018-06-21T11:30:31.990Z,129.80
2018-06-21T11:33:03.322Z,134.30
2018-06-21T11:35:34.681Z,135.30
2018-06-21T11:38:05.879Z,133.43
2018-06-21T11:40:37.477Z,133.15
2018-06-21T11:43:10.148Z,144.05
2018-06-21T11:45:41.599Z,140.15
2018-06-21T11:48:13.003Z,136.47
2018-06-21T11:50:44.146Z,134.18
2018-06-21T11:53:15.342Z,129.70
2018-06-21T11:55:46.443Z,131.27
2018-06-21T11:58:17.711Z,129.85
2018-06-21T12:00:48.968Z,133.65
2018-06-21T12:03:20.241Z,135.97
2018-06-21T12:05:51.754Z,134.80
2018-06-21T12:08:23.685Z,133.60
2018-06-21T12:10:54.797Z,133.40
2018-06-21T12:13:26.064Z,135.52
2018-06-21T12:15:57.956Z,134.87
2018-06-21T12:18:29.284Z,129.47
2018-06-21T12:21:00.611Z,131.70
2018-06-21T12:23:32.006Z,139.50
2018-06-21T12:26:03.110Z,135.75
2018-06-21T12:28:34.325Z,133.05
2018-06-21T12:31:05.657Z,138.03
2018-06-21T12:33:36.806Z,136.30
2018-06-21T12:36:08.036Z,135.18
2018-06-21T12:38:39.156Z,140.37
2018-06-21T12:41:10.333Z,138.45
2018-06-21T12:43:41.861Z,138.75
2018-06-21T12:46:13.482Z,135.90
2018-06-21T12:48:45.324Z,132.65
2018-06-21T12:51:16.673Z,135.95
2018-06-21T12:53:48.140Z,140.35
2018-06-21T12:56:19.415Z,136.47
2018-06-21T12:58:50.479Z,143.17
2018-06-21T13:01:21.846Z,138.00
2018-06-21T13:03:54.824Z,136.40
2018-06-21T13:06:26.426Z,143.00
2018-06-21T13:09:08.280Z,149.82
2018-06-21T13:12:53.069Z,143.72
2018-06-21T13:15:24.505Z,140.40
2018-06-21T13:17:55.859Z,141.70
2018-06-21T13:20:27.293Z,141.45
2018-06-21T13:22:58.486Z,134.52
2018-06-21T13:25:29.641Z,135.10
2018-06-21T13:28:01.617Z,134.18
2018-06-21T13:30:35.481Z,137.75
2018-06-21T13:33:07.868Z,133.65
2018-06-21T13:36:13.778Z,139.80
2018-06-21T13:39:04.270Z,137.07
2018-06-21T13:42:06.500Z,139.05
2018-06-21T13:45:01.849Z,140.68
2018-06-21T13:50:52.235Z,140.57
2018-06-21T13:53:28.273Z,145.90
2018-06-21T13:55:59.236Z,139.70
2018-06-21T13:58:30.282Z,136.20
2018-06-21T14:01:01.418Z,137.03
2018-06-21T14:03:35.959Z,137.65
2018-06-21T14:06:07.612Z,134.80
2018-06-21T14:08:38.941Z,133.05
2018-06-21T14:11:09.758Z,135.20
2018-06-21T14:13:41.137Z,134.82
2018-06-21T14:16:12.483Z,126.87
2018-06-21T14:18:43.700Z,129.87
2018-06-21T14:21:15.852Z,125.22
2018-06-21T14:23:46.937Z,127.50
2018-06-21T14:26:18.031Z,129.80
2018-06-21T14:28:49.238Z,127.10
2018-06-21T14:31:20.462Z,125.27
2018-06-21T14:33:51.993Z,134.57
2018-06-21T14:36:23.125Z,131.63
2018-06-21T14:38:54.246Z,137.55
2018-06-21T14:41:25.429Z,132.07
2018-06-21T14:43:56.352Z,129.65
2018-06-21T14:46:27.795Z,131.85
2018-06-21T14:48:59.066Z,129.53
2018-06-21T14:51:30.234Z,143.00
2018-06-21T14:54:01.676Z,129.38
2018-06-21T14:56:33.951Z,131.22
2018-06-21T14:59:05.010Z,129.60
2018-06-21T15:01:36.074Z,135.72
2018-06-21T15:04:07.098Z,132.15
2018-06-21T15:06:39.294Z,141.35
2018-06-21T15:09:12.668Z,132.82
2018-06-21T15:11:43.733Z,134.35
2018-06-21T15:14:14.816Z,132.03
2018-06-21T15:16:46.193Z,135.05
2018-06-21T15:19:17.459Z,137.92
2018-06-21T15:21:48.627Z,124.95
2018-06-21T15:24:20.627Z,132.15
2018-06-21T15:26:51.759Z,131.65
2018-06-21T15:29:22.903Z,126.12
2018-06-21T15:31:54.090Z,131.57
2018-06-21T15:34:25.257Z,126.97
2018-06-21T15:36:56.687Z,133.25
2018-06-21T15:39:27.763Z,131.90
2018-06-21T15:41:58.981Z,137.55
2018-06-21T15:44:31.544Z,139.05
2018-06-21T15:47:04.997Z,135.15
2018-06-21T15:49:36.126Z,137.20
2018-06-21T15:52:07.696Z,137.40
2018-06-21T15:54:39.442Z,139.68
2018-06-21T15:57:11.743Z,133.03
2018-06-21T15:59:42.902Z,132.90
2018-06-21T16:02:14.028Z,135.78
2018-06-21T16:04:45.281Z,136.88
2018-06-21T16:07:16.389Z,135.40
2018-06-21T16:09:47.587Z,135.68
2018-06-21T16:12:19.018Z,132.63
2018-06-21T16:14:50.295Z,135.78
2018-06-21T16:17:21.397Z,138.07
2018-06-21T16:19:52.582Z,145.15
2018-06-21T16:22:23.886Z,142.57
2018-06-21T16:24:55.321Z,129.80
2018-06-21T16:27:26.500Z,130.40
2018-06-21T16:29:57.573Z,132.47
2018-06-21T16:32:28.642Z,130.72
2018-06-21T16:34:59.952Z,137.12
2018-06-21T16:37:31.040Z,136.03
2018-06-21T16:40:02.489Z,129.05
2018-06-21T16:42:33.655Z,126.97
2018-06-21T16:45:04.831Z,128.40
2018-06-21T16:47:36.041Z,130.72
2018-06-21T16:50:07.564Z,125.70
2018-06-21T16:52:38.604Z,127.67
2018-06-21T16:55:09.761Z,129.68
2018-06-21T16:57:41.060Z,131.70
2018-06-21T17:00:12.314Z,130.47
2018-06-21T17:02:44.625Z,139.52
2018-06-21T17:05:16.508Z,135.03
2018-06-21T17:07:49.044Z,135.00
2018-06-21T17:10:21.775Z,130.30
2018-06-21T17:12:52.970Z,130.97
2018-06-21T17:15:24.661Z,135.12
2018-06-21T17:17:58.596Z,130.93
2018-06-21T17:20:30.504Z,131.50
2018-06-21T17:23:03.764Z,136.65
2018-06-21T17:25:36.770Z,131.75
2018-06-21T17:28:09.553Z,134.32
2018-06-21T17:30:40.803Z,131.12
2018-06-21T17:33:12.925Z,132.57
2018-06-21T17:35:43.933Z,135.88
2018-06-21T17:38:15.494Z,133.67
2018-06-21T17:40:46.702Z,130.87
2018-06-21T17:43:18.439Z,132.00
2018-06-21T17:45:50.190Z,132.75
2018-06-21T17:48:22.597Z,129.95
2018-06-21T17:50:55.329Z,131.75
2018-06-21T17:53:29.274Z,137.75
2018-06-21T17:56:02.113Z,137.80
2018-06-21T17:58:33.184Z,131.45
2018-06-21T18:01:04.461Z,136.15
2018-06-21T18:03:35.717Z,134.75
2018-06-21T18:06:06.812Z,136.25
2018-06-21T18:08:38.947Z,134.75
2018-06-21T18:11:10.049Z,132.67
2018-06-21T18:13:41.628Z,133.47
2018-06-21T18:16:12.704Z,137.22
2018-06-21T18:18:44.938Z,142.53
2018-06-21T18:21:16.610Z,139.52
2018-06-21T18:23:47.855Z,132.50
2018-06-21T18:26:19.441Z,130.45
2018-06-21T18:28:50.972Z,163.52
2018-06-21T18:31:23.283Z,133.40
2018-06-21T18:33:55.260Z,133.55
2018-06-21T18:36:27.423Z,136.50
2018-06-21T18:38:58.895Z,127.65
2018-06-21T18:41:30.689Z,132.63
2018-06-21T18:44:02.037Z,125.75
2018-06-21T18:46:33.316Z,125.95
2018-06-21T18:49:04.652Z,127.40
2018-06-21T18:51:36.094Z,130.55
2018-06-21T18:54:07.487Z,125.78
2018-06-21T18:56:39.218Z,124.67
2018-06-21T18:59:10.943Z,124.20
2018-06-21T19:01:42.824Z,131.50
2018-06-21T19:04:14.444Z,128.72
2018-06-21T19:06:50.828Z,131.25
2018-06-21T19:09:28.102Z,134.22
2018-06-21T19:12:08.546Z,130.90
2018-06-21T19:14:39.797Z,151.05
2018-06-21T19:17:11.295Z,143.25
2018-06-21T19:19:42.841Z,137.03
2018-06-21T19:22:14.293Z,133.97
2018-06-21T19:24:46.051Z,132.22
2018-06-21T19:27:17.872Z,129.75
2018-06-21T19:29:49.121Z,130.78
2018-06-21T19:32:20.446Z,130.87
2018-06-21T19:34:52.598Z,128.45
2018-06-21T19:37:24.877Z,126.97
2018-06-21T19:39:56.247Z,126.18
2018-06-21T19:42:27.683Z,129.00
2018-06-21T19:44:58.920Z,126.92
2018-06-21T19:47:30.258Z,127.12
2018-06-21T19:50:01.645Z,127.45
2018-06-21T19:52:32.994Z,128.57
2018-06-21T19:55:04.629Z,128.60
2018-06-21T19:57:35.934Z,125.10
2018-06-21T20:00:07.692Z,124.60
2018-06-21T20:02:44.222Z,133.30
2018-06-21T20:05:15.799Z,128.20
2018-06-21T20:07:47.182Z,124.80
2018-06-21T20:10:18.410Z,126.20
2018-06-21T20:12:49.804Z,122.60
2018-06-21T20:15:21.037Z,128.42
2018-06-21T20:17:52.186Z,127.30
2018-06-21T20:20:28.281Z,125.82
2018-06-21T20:22:59.613Z,128.65
2018-06-21T20:25:31.224Z,128.95
2018-06-21T20:28:02.914Z,132.87
2018-06-21T20:30:34.169Z,136.52
2018-06-21T20:33:05.681Z,131.05
2018-06-21T20:35:36.868Z,134.03
2018-06-21T20:38:08.732Z,133.05
2018-06-21T20:40:39.774Z,133.82
2018-06-21T20:43:10.864Z,133.03
2018-06-21T20:45:42.368Z,126.22
2018-06-21T20:48:13.763Z,132.12
2018-06-21T20:50:45.049Z,127.25
2018-06-21T20:53:16.155Z,135.40
2018-06-21T20:55:48.508Z,130.45
2018-06-21T20:58:19.913Z,129.53
2018-06-21T21:00:51.001Z,124.90
2018-06-21T21:03:22.165Z,126.38
2018-06-21T21:05:53.200Z,125.02
2018-06-21T21:08:24.709Z,125.60
2018-06-21T21:10:55.645Z,125.65
2018-06-21T21:13:26.727Z,127.97
2018-06-21T21:15:57.959Z,127.85
2018-06-21T21:18:29.405Z,125.35
2018-06-21T21:21:00.746Z,123.38
2018-06-21T21:23:31.965Z,122.70
2018-06-21T21:26:03.111Z,129.27
2018-06-21T21:28:34.392Z,124.00
2018-06-21T21:31:05.388Z,127.30
2018-06-21T21:33:36.638Z,124.30
2018-06-21T21:36:07.697Z,122.10
2018-06-21T21:38:38.647Z,125.50
2018-06-21T21:41:09.565Z,122.28
2018-06-21T21:43:41.024Z,126.10
2018-06-21T21:46:12.102Z,124.40
2018-06-21T21:48:43.471Z,127.53
2018-06-21T21:51:14.664Z,126.30
2018-06-21T21:53:46.205Z,124.78
2018-06-21T21:56:17.173Z,127.05
2018-06-21T21:58:48.811Z,125.07
2018-06-21T22:01:19.822Z,124.22
2018-06-21T22:03:50.876Z,122.40
2018-06-21T22:06:21.895Z,126.12
2018-06-21T22:08:53.004Z,129.85
2018-06-21T22:11:24.070Z,130.65
2018-06-21T22:14:00.039Z,129.40
2018-06-21T22:16:31.113Z,125.62
2018-06-21T22:19:02.269Z,126.10
2018-06-21T22:21:33.582Z,125.62
2018-06-21T22:24:06.622Z,127.32
2018-06-21T22:26:38.095Z,131.95
2018-06-21T22:29:10.929Z,129.90
2018-06-21T22:31:42.157Z,131.85
2018-06-21T22:34:16.367Z,130.95
2018-06-21T22:36:48.056Z,127.22
2018-06-21T22:39:19.496Z,126.80
2018-06-21T22:41:50.490Z,124.90
2018-06-21T22:44:22.113Z,122.58
2018-06-21T22:46:53.397Z,124.45
2018-06-21T22:49:24.531Z,128.72
2018-06-21T22:51:55.499Z,127.80
2018-06-21T22:54:26.851Z,125.45
2018-06-21T22:56:58.006Z,122.30
2018-06-21T22:59:29.518Z,128.32
2018-06-21T23:02:01.954Z,124.45
2018-06-21T23:04:33.321Z,122.98
2018-06-21T23:07:04.386Z,120.05
2018-06-21T23:09:35.884Z,120.80
2018-06-21T23:12:08.504Z,124.75
2018-06-21T23:14:39.764Z,122.00
2018-06-21T23:17:10.825Z,120.72
2018-06-21T23:19:42.141Z,122.20
2018-06-21T23:22:13.186Z,121.33
2018-06-21T23:24:44.383Z,121.65
2018-06-21T23:27:15.418Z,123.13
2018-06-21T23:29:48.222Z,121.55
2018-06-21T23:32:19.619Z,119.25
2018-06-21T23:34:50.943Z,114.95
2018-06-21T23:37:21.979Z,115.32
2018-06-21T23:39:53.253Z,122.20
2018-06-21T23:42:24.517Z,124.82
2018-06-21T23:44:55.865Z,124.80
2018-06-21T23:47:29.628Z,125.62
2018-06-21T23:50:03.562Z,120.70
2018-06-21T23:52:35.059Z,122.13
2018-06-21T23:55:06.132Z,118.93
2018-06-21T23:57:37.049Z,121.72
